Time;durP1;ratioP1;P1;durP2;ratioP2;P2;SDS_P1;SDS_P2;PMS_P1;PMS_P2;Temp;Humidity;BMP_temperature;BMP_pressure;BME280_temperature;BME280_humidity;BME280_pressure;Samples;Min_cycle;Max_cycle;Signal;HPM_P1;HPM_P2
2022/01/15 00:00:51;;;;;;;6.38;2.08;;;25.00;93.70;;;;;;5072893;28;20028;-54
2022/01/15 00:03:18;;;;;;;9.10;2.75;;;25.00;93.90;;;;;;5072573;28;20021;-51
2022/01/15 00:05:46;;;;;;;5.93;2.05;;;25.20;93.60;;;;;;5072688;28;20078;-59
2022/01/15 00:08:13;;;;;;;2.67;1.70;;;25.20;93.50;;;;;;5071636;28;20099;-57
2022/01/15 00:10:41;;;;;;;4.00;1.67;;;25.20;93.30;;;;;;5072417;28;20040;-54
2022/01/15 00:13:14;;;;;;;5.38;2.45;;;25.30;93.50;;;;;;5072571;28;20056;-60
2022/01/15 00:15:48;;;;;;;11.80;2.72;;;25.40;93.50;;;;;;5072566;28;20028;-51
2022/01/15 00:18:17;;;;;;;7.53;2.55;;;25.50;93.30;;;;;;5072140;28;20032;-53
2022/01/15 00:20:44;;;;;;;6.20;2.72;;;25.50;93.30;;;;;;5072182;28;20109;-59
2022/01/15 00:23:12;;;;;;;3.67;1.95;;;25.60;93.10;;;;;;5071071;28;20066;-55
2022/01/15 00:25:39;;;;;;;5.22;2.08;;;25.70;92.80;;;;;;5072115;28;20029;-56
2022/01/15 00:28:06;;;;;;;6.28;2.10;;;25.70;92.60;;;;;;5071980;28;20035;-58
2022/01/15 00:30:34;;;;;;;7.25;2.85;;;25.80;92.70;;;;;;5070762;28;20024;-60
2022/01/15 00:33:01;;;;;;;5.85;2.80;;;25.90;92.70;;;;;;5072298;28;20025;-61
2022/01/15 00:35:30;;;;;;;5.10;2.35;;;25.90;92.70;;;;;;5072019;28;20035;-53
2022/01/15 00:37:57;;;;;;;10.13;2.22;;;25.90;92.60;;;;;;5071421;28;20021;-59
2022/01/15 00:40:25;;;;;;;4.10;1.80;;;25.90;92.60;;;;;;5071493;28;20043;-59
2022/01/15 00:42:52;;;;;;;7.15;2.22;;;25.90;92.40;;;;;;5071688;28;20056;-53
2022/01/15 00:45:22;;;;;;;6.25;2.70;;;25.90;92.50;;;;;;5071808;28;20025;-51
2022/01/15 00:47:53;;;;;;;4.55;2.03;;;25.90;92.50;;;;;;5071906;28;20383;-59
2022/01/15 00:50:21;;;;;;;8.32;3.17;;;25.90;92.30;;;;;;5072057;28;20105;-52
2022/01/15 00:52:49;;;;;;;4.68;2.08;;;26.00;92.80;;;;;;5072758;28;20056;-58
2022/01/15 00:55:18;;;;;;;9.65;2.75;;;26.00;92.30;;;;;;5072319;28;20530;-53
2022/01/15 00:57:45;;;;;;;11.00;2.75;;;26.10;92.90;;;;;;5071381;28;20062;-50
2022/01/15 01:00:20;;;;;;;4.75;1.92;;;26.10;92.40;;;;;;5071687;28;20360;-52
2022/01/15 01:02:48;;;;;;;7.28;2.50;;;26.00;92.20;;;;;;5071626;28;20028;-49
2022/01/15 01:05:17;;;;;;;15.02;3.30;;;26.00;92.60;;;;;;5071633;28;20025;-48
2022/01/15 01:07:45;;;;;;;8.38;2.67;;;26.10;92.60;;;;;;5071584;28;20424;-52
2022/01/15 01:23:24;;;;;;;14.88;3.47;;;26.10;92.80;;;;;;5071204;28;20024;-50
2022/01/15 01:25:58;;;;;;;4.78;1.83;;;26.10;92.80;;;;;;5069825;28;20021;-51
2022/01/15 01:28:33;;;;;;;4.80;2.10;;;26.00;92.40;;;;;;5071654;28;20028;-59
2022/01/15 01:31:16;;;;;;;6.25;2.75;;;26.10;92.70;;;;;;5071685;28;20028;-59
2022/01/15 01:33:48;;;;;;;13.70;3.17;;;26.10;93.00;;;;;;5071282;28;20364;-54
2022/01/15 01:36:37;;;;;;;9.23;3.20;;;26.10;93.00;;;;;;5075025;28;20052;-59
2022/01/15 01:39:11;;;;;;;5.80;2.80;;;26.10;93.10;;;;;;5075656;28;20472;-62
2022/01/15 01:41:42;;;;;;;14.43;4.05;;;26.10;92.70;;;;;;5075006;28;20041;-55
2022/01/15 01:44:16;;;;;;;13.20;4.97;;;26.10;93.20;;;;;;5073654;28;20036;-59
2022/01/15 01:46:52;;;;;;;8.40;2.92;;;26.20;93.40;;;;;;5075208;28;20257;-61
2022/01/15 01:49:20;;;;;;;10.70;3.22;;;26.10;93.10;;;;;;5075640;28;20419;-55
2022/01/15 01:51:48;;;;;;;7.28;2.97;;;26.20;93.00;;;;;;5075494;28;20431;-51
2022/01/15 01:54:18;;;;;;;6.70;2.65;;;26.20;93.10;;;;;;5074983;28;20367;-52
2022/01/15 01:56:47;;;;;;;7.80;2.90;;;26.10;92.80;;;;;;5074879;28;20029;-60
2022/01/15 01:59:16;;;;;;;8.75;3.00;;;26.20;93.00;;;;;;5075227;28;20032;-60
2022/01/15 02:01:45;;;;;;;11.43;3.03;;;26.30;92.90;;;;;;5074643;28;20210;-59
2022/01/15 02:04:12;;;;;;;9.02;2.95;;;26.20;93.00;;;;;;5072717;28;20075;-61
2022/01/15 02:06:40;;;;;;;6.45;2.53;;;26.30;92.90;;;;;;5074675;28;20451;-50
2022/01/15 02:09:08;;;;;;;6.55;2.72;;;26.20;92.60;;;;;;5074841;28;20024;-61
2022/01/15 02:11:39;;;;;;;6.40;2.42;;;26.20;92.60;;;;;;5074365;28;20032;-60
2022/01/15 02:14:06;;;;;;;3.05;1.95;;;26.20;92.60;;;;;;5074359;28;20394;-61
2022/01/15 02:16:33;;;;;;;5.18;2.00;;;26.10;92.60;;;;;;5074319;28;20037;-59
2022/01/15 02:19:01;;;;;;;3.05;1.77;;;26.10;92.60;;;;;;5073854;28;20393;-60
2022/01/15 02:24:14;;;;;;;3.88;1.58;;;26.10;92.70;;;;;;5074287;28;20037;-57
2022/01/15 02:26:42;;;;;;;10.95;2.60;;;26.10;92.80;;;;;;5074432;28;20396;-60
2022/01/15 02:29:09;;;;;;;10.45;2.40;;;26.20;93.10;;;;;;5074814;28;20099;-56
2022/01/15 02:31:37;;;;;;;11.43;2.58;;;26.30;92.50;;;;;;5074299;28;20032;-58
2022/01/15 02:34:07;;;;;;;6.93;2.45;;;26.40;92.90;;;;;;5073559;28;20099;-61
2022/01/15 02:36:36;;;;;;;5.45;2.10;;;26.50;92.70;;;;;;5073896;28;20021;-61
2022/01/15 02:39:08;;;;;;;3.78;1.58;;;26.60;92.30;;;;;;5073942;28;20059;-60
2022/01/15 02:41:41;;;;;;;3.90;2.17;;;26.60;92.00;;;;;;5072386;28;20032;-60
2022/01/15 02:44:16;;;;;;;4.30;2.03;;;26.70;91.80;;;;;;5074163;28;20032;-60
2022/01/15 02:49:18;;;;;;;7.88;2.55;;;26.50;92.00;;;;;;5074179;28;20103;-63
2022/01/15 02:51:45;;;;;;;5.47;2.08;;;26.70;92.20;;;;;;5073651;28;20040;-60
2022/01/15 02:54:13;;;;;;;4.15;2.22;;;26.90;91.80;;;;;;5073633;28;20126;-58
2022/01/15 02:56:45;;;;;;;4.40;2.15;;;26.90;91.40;;;;;;5074126;28;20028;-61
2022/01/15 02:59:27;;;;;;;2.88;1.58;;;26.90;91.60;;;;;;5073460;28;20107;-49
2022/01/15 03:01:53;;;;;;;;;;;26.80;91.50;;;;;;5074091;28;20610;-55
2022/01/15 03:04:21;;;;;;;4.45;1.92;;;26.80;91.50;;;;;;5073637;28;19977;-55
2022/01/15 03:06:48;;;;;;;4.80;2.10;;;26.80;91.50;;;;;;5074101;28;20104;-56
2022/01/15 03:09:16;;;;;;;4.05;1.77;;;26.80;91.50;;;;;;5073582;28;20020;-59
2022/01/15 03:11:43;;;;;;;3.90;1.95;;;26.70;91.70;;;;;;5073474;28;20028;-59
2022/01/15 03:14:13;;;;;;;5.95;2.25;;;26.80;91.50;;;;;;5073449;28;20119;-60
2022/01/15 03:16:40;;;;;;;4.05;2.30;;;26.90;91.50;;;;;;5073372;28;20050;-61
2022/01/15 03:19:08;;;;;;;6.03;2.20;;;26.90;91.50;;;;;;5073656;28;20349;-56
2022/01/15 03:21:36;;;;;;;7.13;2.03;;;26.90;91.70;;;;;;5073138;28;20040;-61
2022/01/15 03:24:04;;;;;;;6.55;1.90;;;27.00;91.20;;;;;;5073371;28;20020;-58
2022/01/15 03:26:31;;;;;;;4.03;1.88;;;27.00;91.30;;;;;;5073539;28;20091;-53
2022/01/15 03:28:59;;;;;;;5.22;2.10;;;27.10;91.10;;;;;;5072375;28;20058;-55
2022/01/15 03:31:26;;;;;;;3.90;1.92;;;27.10;91.00;;;;;;5072359;28;20059;-62
2022/01/15 03:33:54;;;;;;;11.50;3.03;;;27.00;91.10;;;;;;5071407;28;20402;-55
2022/01/15 03:36:22;;;;;;;9.18;3.20;;;27.10;90.90;;;;;;5073456;28;20040;-53
2022/01/15 03:38:49;;;;;;;9.27;2.53;;;27.20;91.20;;;;;;5073344;28;20123;-57
2022/01/15 03:41:17;;;;;;;7.63;2.47;;;27.20;90.60;;;;;;5073589;28;20029;-49
2022/01/15 03:43:45;;;;;;;11.95;2.70;;;27.20;90.90;;;;;;5073555;28;20043;-56
2022/01/15 03:46:12;;;;;;;8.02;2.25;;;27.20;91.00;;;;;;5073092;28;20056;-57
2022/01/15 03:48:40;;;;;;;9.05;2.50;;;27.20;91.20;;;;;;5073324;28;20017;-55
2022/01/15 03:51:07;;;;;;;9.05;3.30;;;27.20;91.30;;;;;;5073296;28;20036;-57
2022/01/15 03:53:35;;;;;;;6.68;2.53;;;27.30;91.10;;;;;;5074011;28;20241;-59
2022/01/15 03:56:02;;;;;;;8.05;3.00;;;27.40;90.90;;;;;;5074290;28;20143;-55
2022/01/15 03:58:29;;;;;;;9.35;3.08;;;27.40;90.20;;;;;;5072949;28;20036;-55
2022/01/15 04:00:57;;;;;;;11.88;3.13;;;27.50;90.40;;;;;;5072116;28;20067;-56
2022/01/15 04:03:24;;;;;;;13.70;3.00;;;27.60;90.20;;;;;;5072260;28;20375;-56
2022/01/15 04:05:55;;;;;;;10.97;2.73;;;27.60;89.80;;;;;;5071107;28;20086;-58
2022/01/15 04:08:23;;;;;;;10.38;2.97;;;27.60;89.20;;;;;;5072401;28;20288;-52
2022/01/15 04:10:50;;;;;;;9.55;2.67;;;27.60;89.60;;;;;;5072109;28;20021;-56
2022/01/15 04:13:19;;;;;;;12.35;2.95;;;27.60;89.10;;;;;;5073102;28;20024;-57
2022/01/15 04:15:52;;;;;;;10.88;3.45;;;27.60;89.50;;;;;;5071027;28;20029;-59
2022/01/15 04:18:22;;;;;;;10.52;2.72;;;27.60;89.90;;;;;;5072003;28;20032;-55
2022/01/15 04:20:51;;;;;;;10.23;3.13;;;27.60;89.70;;;;;;5072242;28;20037;-56
2022/01/15 04:23:19;;;;;;;11.45;2.90;;;27.60;90.00;;;;;;5072683;28;20027;-55
2022/01/15 04:25:46;;;;;;;12.95;3.50;;;27.70;89.80;;;;;;5072397;28;20472;-60
2022/01/15 04:28:13;;;;;;;9.07;2.85;;;27.70;90.00;;;;;;5072421;28;20391;-58
2022/01/15 04:30:46;;;;;;;8.77;2.90;;;27.70;90.10;;;;;;5071080;28;20032;-60
2022/01/15 04:33:14;;;;;;;8.32;2.95;;;27.70;90.30;;;;;;5072307;28;20052;-60
2022/01/15 04:35:41;;;;;;;7.57;2.65;;;27.70;91.10;;;;;;5072182;28;20024;-57
2022/01/15 04:38:11;;;;;;;10.10;3.13;;;27.60;89.90;;;;;;5071698;28;20073;-60
2022/01/15 04:40:39;;;;;;;12.05;3.42;;;27.70;90.10;;;;;;5070825;28;20497;-59
2022/01/15 04:43:06;;;;;;;13.77;3.55;;;27.70;89.40;;;;;;5072598;28;20035;-60
2022/01/15 04:45:34;;;;;;;5.55;2.53;;;27.80;90.00;;;;;;5072077;28;20032;-56
2022/01/15 04:48:01;;;;;;;17.27;3.40;;;27.80;90.20;;;;;;5072035;28;20032;-51
2022/01/15 04:50:28;;;;;;;9.23;3.40;;;27.80;90.20;;;;;;5071849;28;20027;-58
2022/01/15 04:52:56;;;;;;;8.23;2.58;;;27.70;90.50;;;;;;5070498;28;20032;-57
2022/01/15 04:55:23;;;;;;;10.50;3.20;;;27.70;90.80;;;;;;5071189;28;20491;-57
2022/01/15 04:57:51;;;;;;;10.63;3.08;;;27.70;90.10;;;;;;5070461;28;20050;-59
2022/01/15 05:00:19;;;;;;;13.38;3.70;;;27.70;90.00;;;;;;5071707;28;20039;-56
2022/01/15 05:02:46;;;;;;;12.90;3.53;;;27.70;89.90;;;;;;5071466;28;20391;-54
2022/01/15 05:05:13;;;;;;;11.82;3.13;;;27.60;90.00;;;;;;5071724;28;20024;-57
2022/01/15 05:07:42;;;;;;;10.85;3.15;;;27.70;90.00;;;;;;5071514;28;20025;-59
2022/01/15 05:10:13;;;;;;;10.35;3.22;;;27.60;90.60;;;;;;5070689;28;20035;-56
2022/01/15 05:12:43;;;;;;;10.27;3.50;;;27.60;90.80;;;;;;5071733;28;20024;-57
2022/01/15 05:15:15;;;;;;;12.25;3.00;;;27.60;90.40;;;;;;5071562;28;20090;-59
2022/01/15 05:17:43;;;;;;;12.48;3.50;;;27.50;90.80;;;;;;5071719;28;20024;-57
2022/01/15 05:20:12;;;;;;;11.57;3.08;;;27.50;90.50;;;;;;5070169;28;20047;-53
2022/01/15 05:22:40;;;;;;;13.57;3.60;;;27.50;90.90;;;;;;5071544;28;20024;-57
2022/01/15 05:25:08;;;;;;;14.32;3.45;;;27.50;90.80;;;;;;5071616;28;20340;-57
2022/01/15 05:27:38;;;;;;;14.45;3.58;;;27.40;91.00;;;;;;5071489;28;20032;-57
2022/01/15 05:30:07;;;;;;;16.23;4.63;;;27.40;90.90;;;;;;5071031;28;20355;-57
2022/01/15 05:32:35;;;;;;;11.60;3.70;;;27.40;90.80;;;;;;5071473;28;20016;-54
2022/01/15 05:35:03;;;;;;;15.52;4.10;;;27.40;91.20;;;;;;5071186;28;20025;-57
2022/01/15 05:37:30;;;;;;;10.07;3.17;;;27.30;91.10;;;;;;5053482;28;20111;-57
2022/01/15 05:39:58;;;;;;;13.52;3.97;;;27.30;91.30;;;;;;5071029;28;20089;-52
2022/01/15 05:42:25;;;;;;;12.40;3.72;;;27.30;91.30;;;;;;5071331;28;20033;-59
2022/01/15 05:44:53;;;;;;;9.90;3.70;;;27.10;91.70;;;;;;5071082;28;20021;-61
2022/01/15 05:47:20;;;;;;;11.40;3.55;;;27.10;91.90;;;;;;5071241;28;20506;-60
2022/01/15 05:49:47;;;;;;;8.23;3.40;;;27.10;91.90;;;;;;5071334;28;20093;-60
2022/01/15 05:52:15;;;;;;;11.73;3.58;;;27.10;91.90;;;;;;5070864;28;20044;-57
2022/01/15 05:54:42;;;;;;;11.88;3.13;;;27.00;91.80;;;;;;5071077;28;20064;-58
2022/01/15 05:57:10;;;;;;;12.38;3.55;;;27.10;91.70;;;;;;5071813;28;20046;-52
2022/01/15 05:59:44;;;;;;;10.38;3.35;;;27.10;91.80;;;;;;5071611;28;20471;-55
2022/01/15 06:02:15;;;;;;;11.85;2.78;;;27.10;91.60;;;;;;5072063;28;20825;-58
2022/01/15 06:04:45;;;;;;;10.52;2.88;;;27.20;91.50;;;;;;5071019;28;20071;-56
2022/01/15 06:07:12;;;;;;;12.43;4.03;;;27.20;91.50;;;;;;5071315;28;20028;-60
2022/01/15 06:09:40;;;;;;;10.93;3.67;;;27.20;91.60;;;;;;5071635;28;20025;-54
2022/01/15 06:12:09;;;;;;;9.27;3.10;;;27.20;90.80;;;;;;5071309;28;20463;-57
2022/01/15 06:14:37;;;;;;;13.93;3.97;;;27.20;91.10;;;;;;5071369;28;20078;-60
2022/01/15 06:17:06;;;;;;;9.25;3.25;;;27.20;90.70;;;;;;5071256;28;20058;-56
2022/01/15 06:19:33;;;;;;;11.63;3.60;;;27.20;91.10;;;;;;5070890;28;20095;-59
2022/01/15 06:22:01;;;;;;;12.40;3.22;;;27.20;90.40;;;;;;5072902;28;20036;-57
2022/01/15 06:24:28;;;;;;;15.30;3.95;;;27.20;90.40;;;;;;5075163;28;20021;-58
2022/01/15 06:26:56;;;;;;;17.20;4.15;;;27.20;89.70;;;;;;5073628;28;20045;-59
2022/01/15 06:29:24;;;;;;;17.33;3.97;;;27.20;90.20;;;;;;5074687;28;20057;-59
2022/01/15 06:31:52;;;;;;;12.13;3.53;;;27.20;90.50;;;;;;5074499;28;20494;-55
2022/01/15 06:34:20;;;;;;;14.40;3.90;;;27.20;90.20;;;;;;5074684;28;20359;-54
2022/01/15 06:36:48;;;;;;;14.98;4.10;;;27.20;90.50;;;;;;5074318;28;20609;-59
2022/01/15 06:39:16;;;;;;;13.50;2.70;;;27.20;90.10;;;;;;5074507;28;20078;-57
2022/01/15 06:41:43;;;;;;;13.13;3.25;;;27.20;90.30;;;;;;5074476;28;20125;-61
2022/01/15 06:44:11;;;;;;;11.82;3.13;;;27.20;89.70;;;;;;5074336;28;20024;-59
2022/01/15 06:46:38;;;;;;;11.73;2.88;;;27.20;89.90;;;;;;5074079;28;20044;-50
2022/01/15 06:49:05;;;;;;;14.65;3.63;;;27.20;90.20;;;;;;5074358;28;20029;-59
2022/01/15 06:51:33;;;;;;;12.63;3.25;;;27.20;90.40;;;;;;5074247;28;20052;-61
2022/01/15 06:54:00;;;;;;;12.25;3.63;;;27.20;90.00;;;;;;5074036;28;20127;-52
2022/01/15 06:56:27;;;;;;;10.82;3.45;;;27.20;90.50;;;;;;5074895;28;20032;-51
2022/01/15 06:59:01;;;;;;;11.45;3.55;;;27.20;89.60;;;;;;5073913;28;20032;-59
2022/01/15 07:01:28;;;;;;;14.70;3.10;;;27.20;89.40;;;;;;5074346;28;20036;-59
2022/01/15 07:03:55;;;;;;;7.95;3.55;;;27.20;88.60;;;;;;5074222;28;20028;-59
2022/01/15 07:06:23;;;;;;;9.90;3.10;;;27.20;88.70;;;;;;5073695;28;20025;-56
2022/01/15 07:08:50;;;;;;;11.32;3.08;;;27.20;89.90;;;;;;5074326;28;20132;-60
2022/01/15 07:11:18;;;;;;;12.50;2.90;;;27.20;89.60;;;;;;5074554;28;20039;-61
2022/01/15 07:13:45;;;;;;;8.93;2.72;;;27.20;89.90;;;;;;5074706;28;20012;-54
2022/01/15 07:16:12;;;;;;;8.48;2.50;;;27.20;90.10;;;;;;5073571;28;20041;-62
2022/01/15 07:18:40;;;;;;;10.20;3.03;;;27.20;89.80;;;;;;5074187;28;20353;-59
2022/01/15 07:21:07;;;;;;;8.23;2.90;;;27.20;90.20;;;;;;5072897;28;20063;-58
2022/01/15 07:23:35;;;;;;;10.18;2.95;;;27.20;90.00;;;;;;5074267;28;20032;-52
2022/01/15 07:26:02;;;;;;;10.98;3.60;;;27.20;90.30;;;;;;5074705;28;20035;-62
2022/01/15 07:28:31;;;;;;;13.02;2.83;;;27.20;90.20;;;;;;5075491;28;20146;-57
2022/01/15 07:30:59;;;;;;;11.95;4.00;;;27.20;90.40;;;;;;5074026;28;20032;-61
2022/01/15 07:33:26;;;;;;;8.35;2.53;;;27.20;90.40;;;;;;5073283;28;20051;-59
2022/01/15 07:35:55;;;;;;;8.35;2.42;;;27.20;90.60;;;;;;5074004;28;20028;-58
2022/01/15 07:38:23;;;;;;;11.50;2.55;;;27.20;90.40;;;;;;5073795;28;20023;-60
2022/01/15 07:40:54;;;;;;;8.57;2.33;;;27.20;90.30;;;;;;5073522;28;20033;-61
2022/01/15 07:43:21;;;;;;;11.13;2.95;;;27.20;90.40;;;;;;5073624;28;20403;-62
2022/01/15 07:45:49;;;;;;;8.75;3.05;;;27.20;90.50;;;;;;5073540;28;20123;-62
2022/01/15 07:48:16;;;;;;;8.52;2.58;;;27.20;90.30;;;;;;5073013;28;20158;-60
2022/01/15 07:50:44;;;;;;;10.00;2.90;;;27.20;90.30;;;;;;5073330;28;20035;-62
2022/01/15 07:53:11;;;;;;;9.52;3.20;;;27.20;90.50;;;;;;5073060;28;20148;-60
2022/01/15 07:55:38;;;;;;;7.90;2.47;;;27.10;90.10;;;;;;5072340;28;20068;-62
2022/01/15 07:58:07;;;;;;;7.50;2.42;;;27.10;90.40;;;;;;5072692;28;20036;-59
2022/01/15 08:00:34;;;;;;;7.63;2.72;;;27.10;90.20;;;;;;5072897;28;20487;-64
2022/01/15 08:03:02;;;;;;;8.40;2.60;;;27.10;90.90;;;;;;5072906;28;20501;-65
2022/01/15 08:05:29;;;;;;;8.10;2.40;;;27.00;91.30;;;;;;5072477;28;20029;-61
2022/01/15 08:07:57;;;;;;;7.90;2.63;;;27.00;90.90;;;;;;5071206;28;20055;-63
2022/01/15 08:10:24;;;;;;;7.13;2.60;;;26.90;91.30;;;;;;5073028;28;20036;-61
2022/01/15 08:12:52;;;;;;;14.30;2.60;;;26.90;91.30;;;;;;5072526;28;20467;-61
2022/01/15 08:15:21;;;;;;;10.20;2.83;;;26.90;91.40;;;;;;5072953;28;20029;-62
2022/01/15 08:17:49;;;;;;;6.90;2.08;;;26.90;91.10;;;;;;5072842;28;20026;-64
2022/01/15 08:20:17;;;;;;;7.35;2.45;;;26.90;91.00;;;;;;5072623;28;20119;-60
2022/01/15 08:22:45;;;;;;;7.75;2.95;;;26.90;90.70;;;;;;5072785;28;20048;-58
2022/01/15 08:25:16;;;;;;;8.68;3.15;;;26.90;90.60;;;;;;5072337;28;20027;-58
2022/01/15 08:27:44;;;;;;;5.35;2.33;;;26.90;91.30;;;;;;5071052;28;20025;-63
2022/01/15 08:30:12;;;;;;;10.20;2.67;;;26.90;90.60;;;;;;5072420;28;20428;-62
2022/01/15 08:32:40;;;;;;;7.72;2.80;;;26.90;90.70;;;;;;5072190;28;20039;-59
2022/01/15 08:35:08;;;;;;;8.52;2.92;;;26.90;91.10;;;;;;5072127;28;20064;-64
2022/01/15 08:37:39;;;;;;;6.75;2.63;;;26.80;91.40;;;;;;5072205;28;20451;-60
2022/01/15 08:40:09;;;;;;;6.68;2.53;;;26.80;91.00;;;;;;5072006;28;20024;-51
2022/01/15 08:42:38;;;;;;;8.02;2.72;;;26.80;91.30;;;;;;5072551;28;20055;-60
2022/01/15 08:45:07;;;;;;;8.77;3.13;;;26.70;91.40;;;;;;5071382;28;20023;-62
2022/01/15 08:47:35;;;;;;;8.35;2.70;;;26.70;91.50;;;;;;5072093;28;20474;-54
2022/01/15 08:50:03;;;;;;;8.40;3.20;;;26.70;91.50;;;;;;5071986;28;20506;-62
2022/01/15 08:52:30;;;;;;;8.43;2.95;;;26.60;91.70;;;;;;5072028;28;20487;-62
2022/01/15 08:54:58;;;;;;;7.60;2.55;;;26.60;91.70;;;;;;5071604;28;20131;-62
2022/01/15 08:57:25;;;;;;;7.85;3.60;;;26.60;91.70;;;;;;5072223;28;20028;-57
2022/01/15 08:59:53;;;;;;;7.53;2.40;;;26.60;91.70;;;;;;5071970;28;20032;-61
2022/01/15 09:02:20;;;;;;;9.73;3.20;;;26.50;92.00;;;;;;5072155;28;20090;-62
2022/01/15 09:04:48;;;;;;;8.00;2.88;;;26.50;91.80;;;;;;5072091;28;20040;-60
2022/01/15 09:07:16;;;;;;;6.63;2.83;;;26.50;91.80;;;;;;5072079;28;20403;-61
2022/01/15 09:09:43;;;;;;;8.65;2.83;;;26.50;92.00;;;;;;5072044;28;20077;-60
2022/01/15 09:12:15;;;;;;;6.30;2.30;;;26.40;92.00;;;;;;5071631;28;20043;-61
2022/01/15 09:14:43;;;;;;;6.30;2.42;;;26.40;91.60;;;;;;5071986;28;20024;-57
2022/01/15 09:17:10;;;;;;;6.43;2.40;;;26.40;92.20;;;;;;5071964;28;20025;-60
2022/01/15 09:19:37;;;;;;;8.23;2.80;;;26.30;92.20;;;;;;5071900;28;20024;-61
2022/01/15 09:22:08;;;;;;;6.95;3.00;;;26.30;91.80;;;;;;5071456;28;20447;-63
2022/01/15 09:24:35;;;;;;;5.32;2.50;;;26.30;91.90;;;;;;5071535;28;20095;-62
2022/01/15 09:30:12;;;;;;;6.75;2.08;;;26.30;92.20;;;;;;5071917;28;20025;-61
2022/01/15 09:32:36;;;;;;;8.10;2.85;;;26.30;92.50;;;;;;5072356;28;20364;-61
2022/01/15 09:35:04;;;;;;;4.53;2.20;;;26.20;92.50;;;;;;5071606;28;20028;-61
2022/01/15 09:37:31;;;;;;;6.65;2.53;;;26.20;92.50;;;;;;5070212;28;20029;-60
2022/01/15 09:39:59;;;;;;;6.63;2.15;;;26.20;92.60;;;;;;5071410;28;20024;-59
2022/01/15 09:42:27;;;;;;;6.28;2.60;;;26.20;92.80;;;;;;5071780;28;20443;-62
2022/01/15 09:44:55;;;;;;;5.88;2.25;;;26.10;92.50;;;;;;5071768;28;20051;-56
2022/01/15 09:47:23;;;;;;;5.30;2.70;;;26.10;92.80;;;;;;5071701;28;20114;-58
2022/01/15 09:49:53;;;;;;;5.18;1.95;;;26.10;92.90;;;;;;5070418;28;20025;-55
2022/01/15 09:52:22;;;;;;;4.53;2.20;;;26.00;92.30;;;;;;5072582;28;20017;-63
2022/01/15 09:54:50;;;;;;;5.13;2.10;;;26.10;92.90;;;;;;5073337;28;20072;-59
2022/01/15 09:57:18;;;;;;;3.88;2.40;;;26.10;92.70;;;;;;5074344;28;20027;-64
2022/01/15 09:59:46;;;;;;;7.15;2.25;;;26.10;92.50;;;;;;5075926;28;20048;-63
2022/01/15 10:02:14;;;;;;;5.35;2.40;;;26.10;92.50;;;;;;5075328;28;20119;-56
2022/01/15 10:04:42;;;;;;;5.68;2.30;;;26.00;92.40;;;;;;5075221;28;20017;-65
2022/01/15 10:07:22;;;;;;;4.93;2.40;;;26.00;92.80;;;;;;5075235;28;20475;-64
2022/01/15 10:09:50;;;;;;;6.25;2.08;;;26.00;93.00;;;;;;5075411;28;20055;-56
2022/01/15 10:12:31;;;;;;;8.63;2.40;;;26.00;92.60;;;;;;5075302;28;20062;-57
2022/01/15 10:15:04;;;;;;;4.32;1.88;;;26.00;92.50;;;;;;5075227;28;20501;-57
2022/01/15 10:17:36;;;;;;;5.45;2.30;;;26.00;93.00;;;;;;5075246;28;20052;-62
2022/01/15 10:20:06;;;;;;;5.78;1.65;;;26.00;93.00;;;;;;5074756;28;20060;-62
2022/01/15 10:22:34;;;;;;;6.05;2.15;;;26.00;92.80;;;;;;5075216;28;20028;-59
2022/01/15 10:25:11;;;;;;;5.97;2.55;;;26.00;93.00;;;;;;5073374;28;20028;-58
2022/01/15 10:27:44;;;;;;;8.45;2.35;;;25.90;92.70;;;;;;5074646;28;20039;-63
2022/01/15 10:30:17;;;;;;;6.28;2.15;;;25.90;92.20;;;;;;5074633;28;20116;-61
2022/01/15 10:33:01;;;;;;;6.35;2.30;;;26.00;93.00;;;;;;5074991;28;20028;-62
2022/01/15 10:35:38;;;;;;;5.15;2.15;;;25.90;92.80;;;;;;5074344;28;20148;-62
2022/01/15 10:38:09;;;;;;;3.85;2.13;;;25.90;93.00;;;;;;5074669;28;20112;-64
2022/01/15 10:40:44;;;;;;;5.88;2.40;;;25.90;92.80;;;;;;5074680;28;20116;-59
2022/01/15 10:43:18;;;;;;;5.57;2.47;;;25.90;92.90;;;;;;5074464;28;20086;-61
2022/01/15 10:45:57;;;;;;;4.45;1.80;;;25.90;92.90;;;;;;5074641;28;20020;-61
2022/01/15 10:48:35;;;;;;;5.43;2.22;;;25.90;92.60;;;;;;5074286;28;20522;-56
2022/01/15 10:51:04;;;;;;;4.43;1.98;;;25.90;92.70;;;;;;5074354;28;20032;-60
2022/01/15 10:53:37;;;;;;;3.13;1.83;;;25.90;92.80;;;;;;5074363;28;20067;-51
2022/01/15 10:56:06;;;;;;;5.35;2.45;;;25.90;92.70;;;;;;5073667;28;20513;-59
2022/01/15 10:58:34;;;;;;;5.30;2.53;;;25.90;92.80;;;;;;5074329;28;20078;-61
2022/01/15 11:01:01;;;;;;;5.90;2.25;;;25.90;92.60;;;;;;5074292;28;20033;-62
2022/01/15 11:03:40;;;;;;;4.93;1.92;;;25.80;92.90;;;;;;5074245;28;20085;-59
2022/01/15 11:06:08;;;;;;;4.57;2.05;;;25.80;92.80;;;;;;5072444;28;20024;-61
2022/01/15 11:08:37;;;;;;;4.65;1.67;;;25.80;92.80;;;;;;5071991;28;20352;-62
2022/01/15 11:11:14;;;;;;;3.47;1.70;;;25.80;92.90;;;;;;5073958;28;20035;-53
2022/01/15 11:13:47;;;;;;;4.38;1.85;;;25.80;92.80;;;;;;5073711;28;20036;-64
2022/01/15 11:16:17;;;;;;;2.72;1.60;;;25.80;93.10;;;;;;5074085;28;20498;-61
2022/01/15 11:18:56;;;;;;;7.20;1.85;;;25.80;93.00;;;;;;5073836;28;20060;-62
2022/01/15 11:21:29;;;;;;;4.75;2.05;;;25.70;92.80;;;;;;5072125;28;20070;-54
2022/01/15 11:24:02;;;;;;;4.18;2.10;;;25.70;93.00;;;;;;5073408;28;20108;-60
2022/01/15 11:26:32;;;;;;;5.35;2.20;;;25.70;93.10;;;;;;5073635;28;20355;-60
2022/01/15 11:28:59;;;;;;;8.23;2.53;;;25.70;93.20;;;;;;5073727;28;20095;-63
2022/01/15 11:31:31;;;;;;;6.22;2.60;;;25.70;93.00;;;;;;5073849;28;20379;-61
2022/01/15 11:34:02;;;;;;;3.15;1.58;;;25.70;93.20;;;;;;5073188;28;20067;-61
2022/01/15 11:36:38;;;;;;;7.18;2.10;;;25.70;93.20;;;;;;5073384;28;20032;-58
2022/01/15 11:39:33;;;;;;;7.95;2.45;;;25.60;93.20;;;;;;5073278;28;20048;-58
2022/01/15 11:42:02;;;;;;;5.85;2.75;;;25.70;93.30;;;;;;5071744;28;20028;-63
2022/01/15 11:44:33;;;;;;;6.03;1.70;;;25.60;93.10;;;;;;5073134;28;20031;-57
2022/01/15 11:47:18;;;;;;;7.97;2.87;;;25.70;93.20;;;;;;5073103;28;20028;-54
2022/01/15 11:49:49;;;;;;;4.68;2.08;;;25.60;93.20;;;;;;5072749;28;20031;-53
2022/01/15 11:52:22;;;;;;;4.70;2.08;;;25.60;93.10;;;;;;5073307;28;20017;-52
2022/01/15 11:54:52;;;;;;;3.75;2.10;;;25.60;93.20;;;;;;5072867;28;20477;-59
2022/01/15 11:57:23;;;;;;;7.47;2.90;;;25.60;93.20;;;;;;5072972;28;20052;-45
2022/01/15 11:59:53;;;;;;;4.15;1.77;;;25.60;93.10;;;;;;5072901;28;20081;-58
2022/01/15 12:02:32;;;;;;;4.57;2.38;;;25.60;93.10;;;;;;5073022;28;20039;-64
2022/01/15 12:05:22;;;;;;;5.20;2.50;;;25.60;93.20;;;;;;5072685;28;20031;-63
2022/01/15 12:08:10;;;;;;;6.82;2.42;;;25.60;93.10;;;;;;5066347;28;20121;-63
2022/01/15 12:10:47;;;;;;;5.05;2.33;;;25.60;93.00;;;;;;5066038;28;20526;-64
2022/01/15 12:13:20;;;;;;;5.57;1.85;;;25.60;93.30;;;;;;5072295;28;20024;-60
2022/01/15 12:15:52;;;;;;;3.63;2.03;;;25.50;93.40;;;;;;5072663;28;20051;-57
2022/01/15 12:18:23;;;;;;;2.42;1.60;;;25.50;93.40;;;;;;5072586;28;20140;-56
2022/01/15 12:20:50;;;;;;;5.30;2.15;;;25.50;93.40;;;;;;5072330;28;20548;-57
2022/01/15 12:23:24;;;;;;;3.67;2.00;;;25.50;93.40;;;;;;5072357;28;20168;-59
2022/01/15 12:25:54;;;;;;;3.35;2.10;;;25.50;93.40;;;;;;5072331;28;20387;-61
2022/01/15 12:28:26;;;;;;;2.85;1.63;;;25.50;93.30;;;;;;5072623;28;20029;-57
2022/01/15 12:30:57;;;;;;;7.80;2.30;;;25.50;93.30;;;;;;5072778;28;20032;-61
2022/01/15 12:33:24;;;;;;;;;;;25.50;93.40;;;;;;5073078;28;20073;-63
2022/01/15 12:35:56;;;;;;;2.83;1.70;;;25.50;93.40;;;;;;5072070;28;19915;-53
2022/01/15 12:38:28;;;;;;;4.32;2.00;;;25.40;93.30;;;;;;5072047;28;20140;-61
2022/01/15 12:41:04;;;;;;;3.00;2.10;;;25.50;93.40;;;;;;5072258;28;20089;-61
2022/01/15 12:43:43;;;;;;;5.95;1.83;;;25.40;93.30;;;;;;5072260;28;20033;-63
2022/01/15 12:46:16;;;;;;;2.95;1.98;;;25.40;93.40;;;;;;5071964;28;20025;-62
2022/01/15 12:48:44;;;;;;;5.57;2.38;;;25.40;93.30;;;;;;5071963;28;20024;-62
2022/01/15 12:51:22;;;;;;;3.00;1.75;;;25.40;93.40;;;;;;5070717;28;20564;-63
2022/01/15 12:53:57;;;;;;;3.72;1.70;;;25.40;93.40;;;;;;5071728;28;20055;-61
2022/01/15 12:56:27;;;;;;;3.60;2.00;;;25.40;93.40;;;;;;5072080;28;20079;-62
2022/01/15 12:58:55;;;;;;;3.63;2.20;;;25.40;93.50;;;;;;5071855;28;20051;-58
2022/01/15 13:01:28;;;;;;;3.33;1.70;;;25.30;93.50;;;;;;5071746;28;20249;-60
2022/01/15 13:03:55;;;;;;;3.58;1.90;;;25.30;93.40;;;;;;5071353;28;20082;-60
2022/01/15 13:06:25;;;;;;;4.28;2.00;;;25.30;93.50;;;;;;5071784;28;20051;-63
2022/01/15 13:08:59;;;;;;;3.28;1.70;;;25.30;93.50;;;;;;5071809;28;20044;-63
2022/01/15 13:11:28;;;;;;;2.80;1.70;;;25.30;93.60;;;;;;5071909;28;20113;-59
2022/01/15 13:14:02;;;;;;;4.05;1.90;;;25.30;93.60;;;;;;5071519;28;20050;-59
2022/01/15 13:16:32;;;;;;;3.75;1.67;;;25.20;93.60;;;;;;5071849;28;20104;-61
2022/01/15 13:19:03;;;;;;;3.83;1.95;;;25.20;93.60;;;;;;5071519;28;20483;-60